Time;durP1;ratioP1;P1;durP2;ratioP2;P2;SDS_P1;SDS_P2;PMS_P1;PMS_P2;Temp;Humidity;BMP_temperature;BMP_pressure;BME280_temperature;BME280_humidity;BME280_pressure;Samples;Min_cycle;Max_cycle;Signal;HPM_P1;HPM_P2
2020/12/25 00:02:13;;;;;;;8.38;5.15;;;3.00;99.90;;;;;;5076987;28;20365;-90
2020/12/25 00:04:40;;;;;;;8.05;5.10;;;3.00;99.90;;;;;;5075889;28;20346;-90
2020/12/25 00:07:08;;;;;;;7.97;5.55;;;3.00;99.90;;;;;;5076346;28;20435;-90
2020/12/25 00:09:35;;;;;;;6.80;4.93;;;3.00;99.90;;;;;;5076416;28;20365;-89
2020/12/25 00:12:02;;;;;;;6.85;5.55;;;3.00;99.90;;;;;;5075554;28;20078;-90
2020/12/25 00:14:30;;;;;;;8.10;5.20;;;3.10;99.90;;;;;;5076336;28;20529;-90
2020/12/25 00:17:01;;;;;;;5.68;5.07;;;3.10;99.90;;;;;;5076256;28;20056;-90
2020/12/25 00:19:28;;;;;;;6.90;4.97;;;3.20;99.90;;;;;;5075775;28;20402;-89
2020/12/25 00:21:55;;;;;;;9.55;5.63;;;3.10;99.90;;;;;;5075942;28;20052;-90
2020/12/25 00:24:23;;;;;;;12.05;5.80;;;3.10;99.90;;;;;;5076246;28;20067;-90
2020/12/25 00:26:50;;;;;;;11.95;5.95;;;3.20;99.90;;;;;;5075654;28;20445;-89
2020/12/25 00:29:18;;;;;;;7.82;5.45;;;3.20;99.90;;;;;;5076385;28;20064;-90
2020/12/25 00:31:46;;;;;;;6.55;4.97;;;3.30;99.90;;;;;;5075557;28;20378;-90
2020/12/25 00:34:14;;;;;;;8.93;5.47;;;3.40;99.90;;;;;;5075670;28;20049;-89
2020/12/25 00:36:43;;;;;;;8.50;4.90;;;3.40;99.90;;;;;;5076394;28;20051;-90
2020/12/25 00:39:13;;;;;;;8.48;5.43;;;3.40;99.90;;;;;;5075592;28;20378;-90
2020/12/25 00:41:51;;;;;;;6.85;5.40;;;3.30;99.90;;;;;;5088998;28;20036;-87
2020/12/25 00:44:19;;;;;;;11.27;5.20;;;3.30;99.90;;;;;;5079842;28;20401;-90
2020/12/25 00:46:47;;;;;;;9.55;5.72;;;3.20;99.90;;;;;;5076759;28;20389;-90
2020/12/25 00:49:16;;;;;;;12.80;5.82;;;3.10;99.90;;;;;;5075274;28;20400;-90
2020/12/25 00:51:47;;;;;;;10.65;6.47;;;3.10;99.90;;;;;;5075382;28;20408;-90
2020/12/25 00:54:15;;;;;;;8.48;5.72;;;3.20;99.90;;;;;;5075699;28;20400;-90
2020/12/25 00:56:42;;;;;;;12.23;6.50;;;3.30;99.90;;;;;;5075784;28;20469;-89
2020/12/25 00:59:10;;;;;;;10.50;6.45;;;3.30;99.90;;;;;;5075801;28;20384;-90
2020/12/25 01:01:38;;;;;;;8.77;6.32;;;3.40;99.90;;;;;;5074166;28;20506;-90
2020/12/25 01:04:12;;;;;;;9.48;5.72;;;3.50;99.90;;;;;;5075019;28;20443;-89
2020/12/25 01:06:42;;;;;;;10.15;6.20;;;3.50;99.90;;;;;;5075313;28;20380;-90
2020/12/25 01:09:10;;;;;;;8.07;6.90;;;3.60;99.90;;;;;;5075609;28;20376;-90
2020/12/25 01:11:40;;;;;;;10.18;6.32;;;3.60;99.90;;;;;;5075265;28;20378;-90
2020/12/25 01:14:07;;;;;;;11.00;6.82;;;3.50;99.90;;;;;;5074340;28;20378;-90
2020/12/25 01:16:35;;;;;;;15.93;7.65;;;3.50;99.90;;;;;;5074231;28;20045;-90
2020/12/25 01:19:02;;;;;;;9.90;6.40;;;3.40;99.90;;;;;;5074712;28;20373;-90
2020/12/25 01:21:30;;;;;;;9.70;5.90;;;3.40;99.90;;;;;;5074508;28;20044;-90
2020/12/25 01:23:57;;;;;;;9.88;5.75;;;3.50;99.90;;;;;;5074753;28;20408;-90
2020/12/25 01:26:25;;;;;;;5.88;5.22;;;3.50;99.90;;;;;;5074868;28;20400;-90
2020/12/25 01:29:00;;;;;;;7.00;6.22;;;3.60;99.90;;;;;;5074640;28;20404;-90
2020/12/25 01:31:27;;;;;;;11.57;6.40;;;3.50;99.90;;;;;;5074831;28;20048;-89
2020/12/25 01:33:54;;;;;;;11.02;6.40;;;3.40;99.90;;;;;;5074355;28;20419;-90
2020/12/25 01:36:22;;;;;;;12.43;6.28;;;3.50;99.90;;;;;;5074356;28;20044;-90
2020/12/25 01:38:49;;;;;;;11.50;6.60;;;3.60;99.90;;;;;;5075275;28;20392;-90
2020/12/25 01:41:16;;;;;;;7.72;5.65;;;3.60;99.90;;;;;;5074618;28;20049;-90
2020/12/25 01:43:44;;;;;;;10.25;6.05;;;3.50;99.90;;;;;;5074037;28;20404;-90
2020/12/25 01:46:13;;;;;;;6.85;5.90;;;3.60;99.90;;;;;;5074626;28;20388;-90
2020/12/25 01:48:42;;;;;;;8.90;5.35;;;3.50;99.90;;;;;;5073934;28;20448;-90
2020/12/25 01:51:16;;;;;;;12.50;6.00;;;3.50;99.90;;;;;;5074991;28;20075;-91
2020/12/25 01:53:44;;;;;;;8.98;6.47;;;3.40;99.90;;;;;;5074488;28;20393;-90
2020/12/25 01:56:12;;;;;;;8.23;6.20;;;3.40;99.90;;;;;;5073843;28;20386;-90
2020/12/25 01:58:41;;;;;;;7.97;6.32;;;3.40;99.90;;;;;;5073702;28;20098;-90
2020/12/25 02:01:10;;;;;;;11.50;6.07;;;3.40;99.90;;;;;;5074506;28;20365;-90
2020/12/25 02:03:38;;;;;;;6.60;5.90;;;3.40;99.90;;;;;;5073738;28;20473;-90
2020/12/25 02:06:06;;;;;;;12.13;6.45;;;3.40;99.90;;;;;;5073828;28;20040;-90
2020/12/25 02:08:33;;;;;;;8.77;5.57;;;3.50;99.90;;;;;;5073605;28;20405;-91
2020/12/25 02:11:01;;;;;;;9.63;5.82;;;3.50;99.90;;;;;;5074456;28;20368;-90
2020/12/25 02:13:30;;;;;;;9.60;5.47;;;3.60;99.90;;;;;;5073690;28;20388;-90
2020/12/25 02:15:58;;;;;;;11.27;6.38;;;3.50;99.90;;;;;;5073349;28;20503;-90
2020/12/25 02:18:38;;;;;;;14.15;6.60;;;3.50;99.90;;;;;;5073930;28;20415;-90
2020/12/25 02:21:06;;;;;;;8.25;6.03;;;3.50;99.90;;;;;;5073702;28;20064;-90
2020/12/25 02:23:35;;;;;;;12.00;6.82;;;3.50;99.90;;;;;;5073908;28;20045;-90
2020/12/25 02:26:03;;;;;;;8.98;5.85;;;3.40;99.90;;;;;;5073416;28;20399;-90
2020/12/25 02:28:31;;;;;;;10.00;6.82;;;3.40;99.90;;;;;;5073333;28;20051;-89
2020/12/25 02:30:59;;;;;;;10.82;5.97;;;3.30;99.90;;;;;;5073200;28;20049;-89
2020/12/25 02:33:30;;;;;;;9.70;6.07;;;3.30;99.90;;;;;;5075041;28;20438;-90
2020/12/25 02:35:57;;;;;;;12.27;6.53;;;3.40;99.90;;;;;;5073254;28;20475;-89
2020/12/25 02:38:25;;;;;;;11.45;6.72;;;3.20;99.90;;;;;;5074151;28;20389;-89
2020/12/25 02:40:53;;;;;;;11.30;6.53;;;3.30;99.90;;;;;;5073135;28;20397;-89
2020/12/25 02:43:20;;;;;;;10.65;6.70;;;3.30;99.90;;;;;;5073309;28;20052;-88
2020/12/25 02:45:48;;;;;;;10.65;6.38;;;3.30;99.90;;;;;;5073769;28;20373;-89
2020/12/25 02:48:15;;;;;;;11.43;6.95;;;3.30;99.90;;;;;;5073302;28;20105;-88
2020/12/25 02:50:43;;;;;;;9.07;6.80;;;3.20;99.90;;;;;;5073137;28;20045;-89
2020/12/25 02:53:10;;;;;;;11.73;7.22;;;3.30;99.90;;;;;;5073077;28;20044;-88
2020/12/25 02:55:38;;;;;;;11.15;7.30;;;3.20;99.90;;;;;;5074338;28;20044;-89
2020/12/25 02:58:06;;;;;;;18.80;8.35;;;3.20;99.90;;;;;;5088868;28;20080;-89
2020/12/25 03:00:34;;;;;;;11.45;7.95;;;3.20;99.90;;;;;;5074018;28;20400;-89
2020/12/25 03:03:02;;;;;;;18.08;8.98;;;3.20;99.90;;;;;;5073106;28;20366;-87
2020/12/25 03:05:33;;;;;;;12.38;8.75;;;3.10;99.90;;;;;;5074079;28;20049;-88
2020/12/25 03:08:01;;;;;;;16.55;9.38;;;3.10;99.90;;;;;;5073147;28;20396;-89
2020/12/25 03:10:28;;;;;;;14.93;8.50;;;3.20;99.90;;;;;;5072973;28;20378;-88
2020/12/25 03:12:56;;;;;;;11.60;7.95;;;3.20;99.90;;;;;;5073785;28;20364;-89
2020/12/25 03:15:24;;;;;;;11.77;8.32;;;3.30;99.90;;;;;;5073507;28;20377;-89
2020/12/25 03:17:52;;;;;;;13.88;8.88;;;3.40;99.90;;;;;;5073208;28;20396;-88
2020/12/25 03:20:19;;;;;;;15.82;9.38;;;3.30;99.90;;;;;;5073268;28;20377;-89
2020/12/25 03:22:47;;;;;;;13.30;8.35;;;3.40;99.90;;;;;;5073699;28;20418;-88
2020/12/25 03:25:14;;;;;;;13.57;9.05;;;3.40;99.90;;;;;;5075114;28;20385;-89
2020/12/25 03:27:42;;;;;;;11.82;8.90;;;3.40;99.90;;;;;;5076866;28;20051;-88
2020/12/25 03:30:10;;;;;;;11.70;8.73;;;3.30;99.90;;;;;;5077063;28;20044;-88
2020/12/25 03:32:38;;;;;;;16.88;9.57;;;3.30;99.90;;;;;;5076644;28;20499;-88
2020/12/25 03:35:06;;;;;;;19.83;10.75;;;3.40;99.90;;;;;;5076770;28;20384;-89
2020/12/25 03:37:34;;;;;;;12.10;8.77;;;3.40;99.90;;;;;;5076938;28;20392;-89
2020/12/25 03:40:02;;;;;;;13.77;9.07;;;3.20;99.90;;;;;;5077277;28;20049;-88
2020/12/25 03:42:29;;;;;;;12.10;8.50;;;3.20;99.90;;;;;;5077474;28;20414;-88
2020/12/25 03:44:56;;;;;;;11.70;8.48;;;3.30;99.90;;;;;;5076253;28;20382;-88
2020/12/25 03:47:27;;;;;;;13.70;8.60;;;3.20;99.90;;;;;;5076699;28;20380;-88
2020/12/25 03:49:55;;;;;;;12.07;8.57;;;3.20;99.90;;;;;;5077003;28;20385;-88
2020/12/25 03:52:22;;;;;;;16.48;9.45;;;3.20;99.90;;;;;;5076317;28;20425;-88
2020/12/25 03:54:50;;;;;;;9.05;8.15;;;3.20;99.90;;;;;;5076911;28;20353;-88
2020/12/25 03:57:18;;;;;;;11.40;8.05;;;3.10;99.90;;;;;;5076759;28;20377;-88
2020/12/25 03:59:45;;;;;;;9.82;8.00;;;3.10;99.90;;;;;;5076913;28;20393;-88
2020/12/25 04:02:12;;;;;;;10.02;7.85;;;3.00;99.90;;;;;;5076841;28;20350;-88
2020/12/25 04:04:39;;;;;;;10.05;7.88;;;2.90;99.90;;;;;;5076053;28;20396;-87
2020/12/25 04:07:07;;;;;;;11.95;7.28;;;2.90;99.90;;;;;;5075989;28;20406;-88
2020/12/25 04:09:35;;;;;;;12.77;7.10;;;3.00;99.90;;;;;;5075755;28;20401;-88
2020/12/25 04:12:02;;;;;;;9.70;6.93;;;2.90;99.90;;;;;;5076400;28;20036;-88
2020/12/25 04:14:30;;;;;;;8.45;6.22;;;3.00;99.90;;;;;;5076405;28;20400;-88
2020/12/25 04:16:57;;;;;;;8.02;6.53;;;2.90;99.90;;;;;;5075663;28;20450;-88
2020/12/25 04:19:25;;;;;;;7.43;6.72;;;2.90;99.90;;;;;;5076144;28;20335;-88
2020/12/25 04:21:52;;;;;;;8.93;6.07;;;2.80;99.90;;;;;;5076279;28;20388;-88
2020/12/25 04:24:20;;;;;;;7.72;6.65;;;2.80;99.90;;;;;;5075717;28;20378;-87
2020/12/25 04:26:48;;;;;;;7.30;5.88;;;2.70;99.90;;;;;;5076309;28;20363;-87
2020/12/25 04:29:15;;;;;;;6.30;5.53;;;2.70;99.90;;;;;;5076198;28;20052;-86
2020/12/25 04:31:42;;;;;;;6.05;5.38;;;2.60;99.90;;;;;;5076277;28;20400;-87
2020/12/25 04:34:09;;;;;;;7.53;6.72;;;2.60;99.90;;;;;;5075990;28;20420;-86
2020/12/25 04:36:37;;;;;;;7.47;6.10;;;2.50;99.90;;;;;;5075481;28;20347;-87
2020/12/25 04:39:06;;;;;;;6.85;6.18;;;2.50;99.90;;;;;;5075651;28;20409;-88
2020/12/25 04:41:34;;;;;;;9.35;6.40;;;2.50;99.90;;;;;;5075684;28;20037;-87
2020/12/25 04:44:03;;;;;;;6.53;5.93;;;2.60;99.90;;;;;;5076212;28;20428;-88
2020/12/25 04:46:31;;;;;;;5.82;5.20;;;2.70;99.90;;;;;;5076975;28;20052;-88
2020/12/25 04:48:58;;;;;;;4.93;4.43;;;2.70;99.90;;;;;;5076600;28;20366;-87
2020/12/25 04:51:25;;;;;;;5.15;4.65;;;2.70;99.90;;;;;;5076082;28;20384;-88
2020/12/25 04:53:54;;;;;;;5.00;4.60;;;2.60;99.90;;;;;;5074942;28;20409;-87
2020/12/25 04:56:23;;;;;;;4.45;4.05;;;2.60;99.90;;;;;;5075283;28;20370;-88
2020/12/25 04:58:52;;;;;;;5.13;4.63;;;2.60;99.90;;;;;;5075258;28;20052;-88
2020/12/25 05:01:20;;;;;;;4.85;4.40;;;2.70;99.90;;;;;;5075968;28;20358;-88
2020/12/25 05:03:47;;;;;;;5.65;4.53;;;2.70;99.90;;;;;;5075490;28;20392;-87
2020/12/25 05:06:17;;;;;;;5.25;4.75;;;2.70;99.90;;;;;;5075026;28;20040;-87
2020/12/25 05:08:46;;;;;;;5.78;5.05;;;2.70;99.90;;;;;;5075589;28;20435;-88
2020/12/25 05:11:19;;;;;;;4.82;4.45;;;2.70;99.90;;;;;;5084211;28;20049;-87
2020/12/25 05:13:47;;;;;;;6.38;5.03;;;2.70;99.90;;;;;;5080731;28;20396;-87
2020/12/25 05:16:16;;;;;;;6.03;5.53;;;2.60;99.90;;;;;;5075521;28;20421;-87
2020/12/25 05:18:45;;;;;;;6.63;5.28;;;2.50;99.90;;;;;;5074998;28;20373;-87
2020/12/25 05:21:15;;;;;;;6.28;5.15;;;2.50;99.90;;;;;;5075309;28;20044;-87
2020/12/25 05:23:43;;;;;;;6.80;5.50;;;2.60;99.90;;;;;;5075043;28;20393;-87
2020/12/25 05:26:11;;;;;;;6.15;5.55;;;2.60;99.90;;;;;;5075218;28;20122;-87
2020/12/25 05:28:44;;;;;;;5.93;4.70;;;2.70;99.90;;;;;;5075220;28;20397;-87
2020/12/25 05:31:13;;;;;;;6.22;4.78;;;2.70;99.90;;;;;;5074842;28;20396;-87
2020/12/25 05:33:40;;;;;;;5.90;5.30;;;2.60;99.90;;;;;;5075756;28;20137;-87
2020/12/25 05:36:10;;;;;;;5.95;4.82;;;2.60;99.90;;;;;;5075514;28;20040;-87
2020/12/25 05:38:38;;;;;;;5.68;5.18;;;2.60;99.90;;;;;;5075466;28;20420;-87
2020/12/25 05:41:08;;;;;;;5.78;5.15;;;2.50;99.90;;;;;;5075378;28;20395;-87
2020/12/25 05:43:35;;;;;;;6.65;5.03;;;2.60;99.90;;;;;;5074163;28;20053;-87
2020/12/25 05:46:02;;;;;;;5.95;5.35;;;2.50;99.90;;;;;;5074482;28;20040;-87
2020/12/25 05:48:33;;;;;;;6.20;4.55;;;2.60;99.90;;;;;;5074195;28;20048;-87
2020/12/25 05:51:07;;;;;;;5.40;4.90;;;2.60;99.90;;;;;;5074553;28;20068;-87
2020/12/25 05:53:38;;;;;;;7.88;5.40;;;2.50;99.90;;;;;;5074477;28;20400;-86
2020/12/25 05:56:07;;;;;;;5.15;4.75;;;2.60;99.90;;;;;;5075704;28;20396;-87
2020/12/25 05:58:42;;;;;;;5.88;4.70;;;2.60;99.90;;;;;;5074243;28;20393;-87
2020/12/25 06:01:10;;;;;;;6.13;4.95;;;2.60;99.90;;;;;;5074543;28;20392;-87
2020/12/25 06:03:38;;;;;;;6.13;4.80;;;2.30;99.90;;;;;;5075031;28;20389;-87
2020/12/25 06:06:13;;;;;;;6.35;5.35;;;2.20;99.90;;;;;;5074112;28;20465;-87
2020/12/25 06:08:50;;;;;;;5.50;5.00;;;2.20;99.90;;;;;;5074730;28;20400;-86
2020/12/25 06:11:23;;;;;;;8.63;4.80;;;2.20;99.90;;;;;;5073290;28;20462;-86
2020/12/25 06:13:51;;;;;;;;;;;2.20;99.90;;;;;;5074954;28;20331;-86
2020/12/25 06:16:22;;;;;;;7.82;5.07;;;2.20;99.90;;;;;;5073818;28;19920;-87
2020/12/25 06:19:01;;;;;;;6.20;5.32;;;2.20;99.90;;;;;;5075043;28;20052;-87
2020/12/25 06:21:50;;;;;;;4.88;4.40;;;2.20;99.90;;;;;;5073903;28;20044;-87
2020/12/25 06:24:19;;;;;;;12.60;11.18;;;2.10;99.90;;;;;;5074544;28;20369;-86
2020/12/25 06:26:57;;;;;;;5.88;4.60;;;2.10;99.90;;;;;;5074533;28;20373;-87
2020/12/25 06:29:26;;;;;;;6.07;4.80;;;2.10;99.90;;;;;;5073895;28;20492;-86
2020/12/25 06:31:55;;;;;;;4.88;3.95;;;2.10;99.90;;;;;;5074340;28;20508;-87
2020/12/25 06:34:38;;;;;;;4.05;3.60;;;2.10;99.90;;;;;;5074250;28;20388;-87
2020/12/25 06:37:11;;;;;;;7.13;3.88;;;2.00;99.90;;;;;;5074559;28;20381;-86
2020/12/25 06:39:42;;;;;;;4.40;3.35;;;1.90;99.90;;;;;;5074742;28;20048;-87
2020/12/25 06:42:11;;;;;;;7.53;6.65;;;1.90;99.90;;;;;;5073777;28;20392;-86
2020/12/25 06:44:42;;;;;;;5.97;4.72;;;1.80;99.90;;;;;;5073991;28;20374;-86
2020/12/25 06:47:10;;;;;;;5.95;3.80;;;1.80;99.90;;;;;;5073185;28;20376;-86
2020/12/25 06:49:37;;;;;;;4.47;3.90;;;1.70;99.90;;;;;;5073747;28;20369;-86
2020/12/25 06:52:04;;;;;;;4.18;3.40;;;1.80;99.90;;;;;;5073311;28;20342;-87
2020/12/25 06:54:41;;;;;;;22.95;17.40;;;1.80;99.90;;;;;;5073365;28;20464;-87
2020/12/25 06:57:10;;;;;;;5.70;3.67;;;1.70;99.90;;;;;;5073617;28;20438;-86
2020/12/25 06:59:41;;;;;;;3.67;3.35;;;1.80;99.90;;;;;;5074122;28;20400;-86
2020/12/25 07:02:12;;;;;;;9.02;7.90;;;1.80;99.90;;;;;;5077741;28;20430;-86
2020/12/25 07:04:43;;;;;;;6.20;4.32;;;1.70;99.90;;;;;;5077818;28;20457;-87
2020/12/25 07:07:12;;;;;;;3.83;3.45;;;1.60;99.90;;;;;;5077948;28;20384;-86
2020/12/25 07:09:44;;;;;;;6.45;4.25;;;1.60;99.90;;;;;;5077926;28;20388;-87
2020/12/25 07:12:18;;;;;;;4.88;3.67;;;1.50;99.90;;;;;;5077465;28;20370;-87
2020/12/25 07:14:45;;;;;;;10.52;4.47;;;1.60;99.90;;;;;;5077408;28;20495;-86
2020/12/25 07:17:13;;;;;;;6.30;4.45;;;1.60;99.90;;;;;;5077317;28;20396;-87
2020/12/25 07:19:43;;;;;;;6.57;4.40;;;1.60;99.90;;;;;;5077350;28;20048;-87
2020/12/25 07:22:10;;;;;;;6.85;4.35;;;1.50;99.90;;;;;;5077542;28;20416;-87
2020/12/25 07:24:42;;;;;;;6.75;5.05;;;1.50;99.90;;;;;;5077581;28;20402;-89
2020/12/25 07:27:11;;;;;;;6.50;4.60;;;1.60;99.90;;;;;;5091875;28;20469;-86
2020/12/25 07:29:39;;;;;;;7.03;4.95;;;1.70;99.90;;;;;;5077327;28;20404;-87
2020/12/25 07:32:08;;;;;;;8.95;4.90;;;1.70;99.90;;;;;;5076609;28;20106;-87
2020/12/25 07:34:36;;;;;;;14.98;7.85;;;1.80;99.90;;;;;;5077229;28;20469;-87
2020/12/25 07:37:03;;;;;;;7.20;4.88;;;1.90;99.90;;;;;;5076948;28;20106;-87
2020/12/25 07:39:30;;;;;;;5.75;4.88;;;1.90;99.90;;;;;;5077284;28;20058;-87
2020/12/25 07:41:57;;;;;;;7.25;4.50;;;1.90;99.90;;;;;;5078524;28;20372;-87
2020/12/25 07:44:25;;;;;;;7.78;5.47;;;2.00;99.90;;;;;;5076983;28;20388;-87
2020/12/25 07:46:52;;;;;;;9.10;4.90;;;1.90;99.90;;;;;;5077045;28;20388;-88
2020/12/25 07:49:19;;;;;;;7.10;5.57;;;2.00;99.90;;;;;;5078289;28;20045;-88
2020/12/25 07:51:50;;;;;;;8.85;4.57;;;2.00;99.90;;;;;;5076899;28;20415;-88
2020/12/25 07:54:20;;;;;;;9.60;3.97;;;2.00;99.90;;;;;;5076218;28;20408;-87
2020/12/25 07:56:49;;;;;;;4.40;4.10;;;2.00;99.90;;;;;;5076817;28;20492;-87
2020/12/25 07:59:17;;;;;;;6.13;4.13;;;1.90;99.90;;;;;;5077804;28;20492;-86
2020/12/25 08:01:45;;;;;;;6.05;3.33;;;1.80;99.90;;;;;;5076586;28;20484;-88
2020/12/25 08:04:12;;;;;;;5.13;3.20;;;1.80;99.90;;;;;;5077471;28;20384;-88
2020/12/25 08:06:39;;;;;;;5.65;3.17;;;1.80;99.90;;;;;;5076451;28;20381;-88
2020/12/25 08:09:11;;;;;;;7.22;3.72;;;1.80;99.90;;;;;;5077270;28;20357;-88
2020/12/25 08:11:40;;;;;;;4.45;3.88;;;1.80;99.90;;;;;;5077026;28;20397;-88
2020/12/25 08:14:10;;;;;;;5.53;3.83;;;1.80;99.90;;;;;;5076433;28;20586;-88
2020/12/25 08:16:38;;;;;;;3.53;3.17;;;1.80;99.90;;;;;;5076247;28;20527;-89
2020/12/25 08:19:06;;;;;;;6.80;3.90;;;1.90;99.90;;;;;;5076512;28;20400;-88
2020/12/25 08:21:34;;;;;;;5.75;3.85;;;1.90;99.90;;;;;;5076645;28;20431;-89
2020/12/25 08:24:01;;;;;;;4.35;3.25;;;2.00;99.90;;;;;;5077809;28;20040;-88
2020/12/25 08:26:30;;;;;;;7.85;3.45;;;1.90;99.90;;;;;;5076095;28;20373;-88
2020/12/25 08:28:58;;;;;;;4.22;3.40;;;1.90;99.90;;;;;;5076895;28;20385;-88
2020/12/25 08:31:25;;;;;;;5.15;3.20;;;2.00;99.90;;;;;;5075566;28;20044;-88
2020/12/25 08:33:57;;;;;;;3.83;3.10;;;2.00;99.90;;;;;;5075941;28;20427;-89
2020/12/25 08:36:25;;;;;;;4.05;3.10;;;1.90;99.90;;;;;;5076781;28;20397;-89
2020/12/25 08:39:07;;;;;;;5.13;3.35;;;1.90;99.90;;;;;;5076557;28;20439;-89
2020/12/25 08:41:35;;;;;;;5.72;3.28;;;1.90;99.90;;;;;;5077094;28;20374;-89
2020/12/25 08:44:12;;;;;;;7.85;3.33;;;1.90;99.90;;;;;;5077004;28;20509;-88
2020/12/25 08:46:40;;;;;;;5.18;3.22;;;1.90;99.90;;;;;;5076968;28;20464;-88
2020/12/25 08:49:08;;;;;;;5.40;3.20;;;1.90;99.90;;;;;;5076228;28;20388;-89
2020/12/25 08:51:37;;;;;;;3.38;3.08;;;2.00;99.90;;;;;;5076030;28;20525;-89
2020/12/25 08:54:05;;;;;;;4.20;3.15;;;2.10;99.90;;;;;;5076403;28;20362;-89
2020/12/25 08:56:35;;;;;;;3.58;3.17;;;2.10;99.90;;;;;;5076125;28;20376;-89
2020/12/25 08:59:07;;;;;;;3.10;2.90;;;2.20;99.90;;;;;;5076098;28;20376;-89
2020/12/25 09:01:38;;;;;;;4.28;3.03;;;2.30;99.90;;;;;;5075823;28;20437;-89
2020/12/25 09:04:13;;;;;;;8.02;3.47;;;2.30;99.90;;;;;;5077173;28;20319;-89
2020/12/25 09:06:39;;;;;;;5.25;3.05;;;2.30;99.90;;;;;;5075634;28;20380;-89
2020/12/25 09:09:26;;;;;;;5.18;2.88;;;2.50;99.90;;;;;;5076040;28;20435;-89
2020/12/25 09:11:53;;;;;;;6.93;2.90;;;2.70;99.90;;;;;;5075624;28;20052;-89
2020/12/25 09:14:20;;;;;;;5.72;2.78;;;2.90;99.90;;;;;;5074837;28;20055;-89
2020/12/25 09:16:48;;;;;;;4.50;2.10;;;3.00;99.90;;;;;;5074873;28;20393;-89
2020/12/25 09:19:15;;;;;;;4.95;2.67;;;3.20;99.90;;;;;;5075622;28;20396;-89
2020/12/25 09:21:43;;;;;;;11.95;7.55;;;3.10;99.90;;;;;;5074866;28;20495;-89
2020/12/25 09:24:11;;;;;;;2.80;2.60;;;3.10;99.90;;;;;;5075229;28;20391;-88
2020/12/25 09:26:38;;;;;;;4.45;4.05;;;3.10;99.90;;;;;;5075467;28;20411;-88
2020/12/25 09:29:06;;;;;;;5.70;2.58;;;3.00;99.90;;;;;;5075291;28;20045;-88
2020/12/25 09:31:34;;;;;;;23.55;15.07;;;3.00;99.90;;;;;;5074458;28;20404;-89
2020/12/25 09:34:01;;;;;;;4.88;3.38;;;3.00;99.90;;;;;;5074776;28;20055;-89
2020/12/25 09:36:29;;;;;;;2.30;2.10;;;3.00;99.90;;;;;;5074404;28;20440;-90
2020/12/25 09:38:57;;;;;;;7.50;2.40;;;3.10;99.90;;;;;;5075243;28;20048;-89
2020/12/25 09:41:25;;;;;;;5.57;2.28;;;3.10;99.90;;;;;;5092036;28;20046;-90
2020/12/25 09:43:57;;;;;;;2.38;2.13;;;3.20;99.90;;;;;;5077561;28;20397;-90
2020/12/25 09:46:25;;;;;;;4.60;3.47;;;3.20;99.90;;;;;;5074728;28;20396;-89
2020/12/25 09:48:52;;;;;;;4.70;1.98;;;3.00;99.90;;;;;;5074752;28;20408;-89
2020/12/25 09:51:24;;;;;;;3.28;2.08;;;2.90;99.90;;;;;;5075465;28;20051;-89
2020/12/25 09:53:51;;;;;;;8.05;4.03;;;3.00;99.90;;;;;;5074648;28;20346;-89
2020/12/25 09:56:19;;;;;;;2.22;2.03;;;3.10;99.90;;;;;;5074492;28;20400;-90
2020/12/25 09:58:46;;;;;;;5.90;2.53;;;2.90;99.90;;;;;;5074345;28;20093;-89
2020/12/25 10:01:13;;;;;;;4.85;1.80;;;2.90;99.90;;;;;;5075426;28;20397;-89
2020/12/25 10:03:40;;;;;;;5.90;4.18;;;2.90;99.90;;;;;;5074395;28;20461;-89
2020/12/25 10:06:08;;;;;;;3.50;2.67;;;3.00;99.90;;;;;;5074013;28;20397;-89
2020/12/25 10:08:35;;;;;;;5.85;2.47;;;2.90;99.90;;;;;;5075085;28;20481;-89
2020/12/25 10:11:03;;;;;;;8.50;5.07;;;2.80;99.90;;;;;;5075114;28;20052;-90
2020/12/25 10:13:30;;;;;;;11.50;7.25;;;2.70;99.90;;;;;;5074088;28;20392;-90
2020/12/25 10:15:57;;;;;;;2.72;2.50;;;2.70;99.90;;;;;;5074943;28;20464;-90
2020/12/25 10:18:24;;;;;;;4.25;3.30;;;2.70;99.90;;;;;;5075484;28;20041;-90
2020/12/25 10:20:52;;;;;;;4.72;2.28;;;2.60;99.90;;;;;;5073893;28;20492;-89
2020/12/25 10:23:19;;;;;;;4.25;3.50;;;2.70;99.90;;;;;;5074478;28;20362;-90
2020/12/25 10:25:46;;;;;;;2.08;1.88;;;2.70;99.90;;;;;;5073956;28;20512;-90
2020/12/25 10:28:15;;;;;;;7.00;2.55;;;2.70;99.90;;;;;;5074399;28;20524;-89
2020/12/25 10:30:42;;;;;;;2.17;2.00;;;2.70;99.90;;;;;;5073564;28;20044;-89
2020/12/25 10:33:10;;;;;;;4.00;2.63;;;2.80;99.90;;;;;;5073849;28;20393;-89
2020/12/25 10:35:37;;;;;;;4.45;4.05;;;2.70;99.90;;;;;;5073917;28;20389;-89
2020/12/25 10:38:04;;;;;;;6.07;2.90;;;2.60;99.90;;;;;;5074848;28;20407;-89
2020/12/25 10:40:31;;;;;;;4.25;3.05;;;2.50;99.90;;;;;;5073511;28;20507;-89
2020/12/25 10:43:01;;;;;;;4.50;3.30;;;2.30;99.90;;;;;;5073979;28;20424;-89
2020/12/25 10:45:28;;;;;;;3.08;2.70;;;2.30;99.90;;;;;;5074975;28;20392;-89
2020/12/25 10:47:55;;;;;;;4.15;3.55;;;2.40;99.90;;;;;;5073545;28;20044;-89
2020/12/25 10:50:23;;;;;;;6.07;3.20;;;2.50;99.90;;;;;;5073412;28;20402;-88
2020/12/25 10:52:50;;;;;;;3.90;2.63;;;2.60;99.90;;;;;;5074264;28;20357;-88
2020/12/25 10:55:17;;;;;;;3.00;2.80;;;2.60;99.90;;;;;;5073065;28;20400;-89
2020/12/25 10:57:44;;;;;;;7.57;3.03;;;2.60;99.90;;;;;;5073419;28;20060;-89
2020/12/25 11:00:11;;;;;;;4.22;2.97;;;2.70;99.90;;;;;;5073330;28;20404;-89
2020/12/25 11:02:39;;;;;;;65.13;39.88;;;2.70;99.90;;;;;;5073075;28;20499;-89
2020/12/25 11:05:06;;;;;;;8.95;6.70;;;2.60;99.90;;;;;;5073296;28;20424;-90
2020/12/25 11:07:36;;;;;;;59.03;36.97;;;2.40;99.90;;;;;;5073451;28;20365;-89
2020/12/25 11:10:03;;;;;;;10.82;5.97;;;2.40;99.90;;;;;;5073581;28;20384;-89
2020/12/25 11:12:30;;;;;;;3.45;3.25;;;2.50;99.90;;;;;;5073449;28;20049;-88
2020/12/25 11:14:57;;;;;;;3.60;3.30;;;2.40;99.90;;;;;;5073191;28;20389;-89
2020/12/25 11:17:24;;;;;;;4.03;2.42;;;2.40;99.90;;;;;;5073026;28;20400;-89
2020/12/25 11:19:55;;;;;;;2.38;2.22;;;2.40;99.90;;;;;;5073300;28;20423;-89
2020/12/25 11:22:23;;;;;;;3.22;2.97;;;2.60;99.90;;;;;;5073355;28;20453;-88
2020/12/25 11:24:51;;;;;;;3.42;2.13;;;2.60;99.90;;;;;;5073093;28;20374;-88
2020/12/25 11:27:18;;;;;;;5.20;4.70;;;2.70;99.90;;;;;;5073358;28;20381;-89
2020/12/25 11:29:45;;;;;;;5.63;3.55;;;2.60;99.90;;;;;;5073299;28;20404;-89
2020/12/25 11:32:12;;;;;;;2.20;2.00;;;2.60;99.90;;;;;;5072779;28;20131;-89
2020/12/25 11:34:39;;;;;;;3.00;2.35;;;2.70;99.90;;;;;;5073521;28;20448;-89
2020/12/25 11:37:06;;;;;;;7.60;5.72;;;2.80;99.90;;;;;;5072935;28;20127;-87
2020/12/25 11:39:33;;;;;;;9.00;7.00;;;2.90;99.90;;;;;;5074817;28;20428;-88
2020/12/25 11:42:03;;;;;;;5.82;5.25;;;2.90;99.90;;;;;;5074951;28;20311;-89
2020/12/25 11:44:31;;;;;;;5.45;4.05;;;3.00;99.90;;;;;;5074991;28;20418;-90
2020/12/25 11:46:59;;;;;;;2.85;2.30;;;3.10;99.90;;;;;;5077157;28;20465;-89
2020/12/25 11:49:26;;;;;;;4.30;2.40;;;3.30;99.90;;;;;;5077629;28;20400;-88
2020/12/25 11:51:56;;;;;;;10.77;8.85;;;3.40;99.90;;;;;;5076495;28;20393;-89
2020/12/25 11:54:24;;;;;;;2.97;2.45;;;3.40;99.90;;;;;;5076751;28;20408;-89
2020/12/25 11:56:53;;;;;;;14.63;11.18;;;3.60;99.90;;;;;;5077148;28;20393;-88
2020/12/25 11:59:20;;;;;;;6.05;5.10;;;3.50;99.90;;;;;;5088183;28;20043;-87
2020/12/25 12:01:48;;;;;;;3.65;2.75;;;3.50;99.90;;;;;;5086061;28;20384;-90
2020/12/25 12:04:15;;;;;;;5.90;2.05;;;3.60;99.90;;;;;;5079296;28;20397;-89
2020/12/25 12:06:42;;;;;;;2.17;2.08;;;3.50;99.90;;;;;;5077806;28;20384;-89
2020/12/25 12:09:10;;;;;;;4.28;1.85;;;3.50;99.90;;;;;;5076371;28;20405;-89
2020/12/25 12:11:41;;;;;;;2.88;2.05;;;3.50;99.90;;;;;;5077071;28;20397;-90
2020/12/25 12:14:08;;;;;;;2.22;2.00;;;3.50;99.90;;;;;;5076288;28;20389;-90
2020/12/25 12:16:35;;;;;;;2.28;1.80;;;3.50;99.90;;;;;;5077024;28;20405;-89
2020/12/25 12:19:08;;;;;;;2.22;2.03;;;3.40;99.90;;;;;;5076871;28;20392;-89
2020/12/25 12:21:35;;;;;;;2.05;1.92;;;3.40;99.90;;;;;;5076732;28;20381;-89
2020/12/25 12:24:03;;;;;;;2.90;2.40;;;3.20;99.90;;;;;;5075993;28;20392;-89
2020/12/25 12:30:17;;;;;;;3.63;2.05;;;3.40;99.90;;;;;;5077006;28;20082;-89
2020/12/25 12:32:44;;;;;;;2.58;2.08;;;3.30;99.90;;;;;;5076258;28;20059;-88
2020/12/25 12:35:12;;;;;;;2.33;2.15;;;3.30;99.90;;;;;;5076766;28;20369;-89
2020/12/25 12:37:40;;;;;;;2.47;2.30;;;3.30;99.90;;;;;;5076048;28;20047;-90
2020/12/25 12:40:08;;;;;;;3.10;2.25;;;3.40;99.90;;;;;;5075459;28;20314;-90
2020/12/25 12:42:35;;;;;;;3.28;2.42;;;3.40;99.90;;;;;;5076497;28;20082;-89
2020/12/25 12:45:05;;;;;;;4.07;3.38;;;3.50;99.90;;;;;;5076542;28;20388;-89
2020/12/25 12:47:33;;;;;;;2.67;2.47;;;3.40;99.90;;;;;;5076242;28;20395;-89
2020/12/25 12:50:00;;;;;;;3.00;2.22;;;3.30;99.90;;;;;;5075383;28;20079;-89
2020/12/25 12:52:27;;;;;;;2.50;2.30;;;3.30;99.90;;;;;;5075437;28;20476;-89
2020/12/25 12:58:35;;;;;;;3.85;2.40;;;3.10;99.90;;;;;;5074981;28;20115;-89
2020/12/25 13:01:02;;;;;;;4.03;2.38;;;2.90;99.90;;;;;;5075333;28;20389;-89
2020/12/25 13:03:28;;;;;;;2.90;2.67;;;3.00;99.90;;;;;;5076285;28;20392;-88
2020/12/25 13:05:56;;;;;;;5.10;3.30;;;3.10;99.90;;;;;;5075307;28;20043;-89
2020/12/25 13:08:23;;;;;;;5.55;2.83;;;3.00;99.90;;;;;;5076890;28;20405;-89
2020/12/25 13:10:50;;;;;;;5.65;2.50;;;3.00;99.90;;;;;;5075880;28;20431;-88